createdAt,value
2023-02-20T00:00:58.148Z,74.05
2023-02-20T00:03:25.698Z,73.57
2023-02-20T00:05:52.240Z,73.55
2023-02-20T00:08:18.940Z,73.60
2023-02-20T00:10:45.483Z,73.91
2023-02-20T00:13:12.070Z,73.29
2023-02-20T00:15:38.613Z,73.99
2023-02-20T00:18:07.103Z,74.10
2023-02-20T00:20:33.754Z,74.45
2023-02-20T00:23:00.324Z,73.97
2023-02-20T00:25:26.810Z,73.24
2023-02-20T00:27:53.393Z,72.64
2023-02-20T00:30:24.468Z,73.30
2023-02-20T00:32:55.582Z,73.25
2023-02-20T00:35:23.183Z,73.09
2023-02-20T00:37:50.557Z,73.82
2023-02-20T00:40:20.886Z,73.64
2023-02-20T00:42:47.589Z,73.33
2023-02-20T00:45:15.389Z,73.07
2023-02-20T00:47:41.954Z,73.58
2023-02-20T00:50:09.480Z,73.41
2023-02-20T00:52:36.334Z,73.40
2023-02-20T00:55:03.861Z,74.65
2023-02-20T00:57:30.394Z,73.90
2023-02-20T00:59:56.943Z,73.10
2023-02-20T01:02:23.499Z,73.09
2023-02-20T01:04:50.269Z,73.26
2023-02-20T01:07:16.993Z,73.31
2023-02-20T01:09:43.527Z,73.35
2023-02-20T01:12:10.083Z,73.26
2023-02-20T01:14:37.380Z,73.59
2023-02-20T01:17:03.906Z,73.88
2023-02-20T01:19:30.645Z,73.19
2023-02-20T01:21:57.175Z,73.26
2023-02-20T01:24:23.746Z,73.54
2023-02-20T01:26:50.314Z,74.31
2023-02-20T01:29:17.596Z,74.50
2023-02-20T01:31:51.319Z,74.31
2023-02-20T01:34:19.701Z,74.80
2023-02-20T01:36:50.080Z,75.32
2023-02-20T01:39:21.360Z,75.13
2023-02-20T01:41:50.738Z,75.07
2023-02-20T01:44:26.591Z,75.53
2023-02-20T01:47:00.408Z,75.40
2023-02-20T01:49:31.589Z,75.74
2023-02-20T01:52:20.476Z,75.91
2023-02-20T01:55:13.752Z,76.65
2023-02-20T01:57:44.606Z,77.18
2023-02-20T02:00:15.613Z,76.85
2023-02-20T02:02:48.414Z,76.13
2023-02-20T02:05:16.212Z,76.42
2023-02-20T02:07:44.140Z,76.43
2023-02-20T02:10:14.298Z,76.44
2023-02-20T02:12:47.590Z,76.39
2023-02-20T02:15:16.024Z,76.20
2023-02-20T02:18:04.330Z,76.16
2023-02-20T02:20:55.882Z,75.85
2023-02-20T02:23:47.374Z,76.17
2023-02-20T02:26:57.305Z,75.87
2023-02-20T02:29:32.849Z,76.25
2023-02-20T02:32:35.026Z,75.76
2023-02-20T02:35:01.324Z,75.42
2023-02-20T02:37:44.196Z,74.86
2023-02-20T02:40:28.423Z,75.26
2023-02-20T02:43:12.450Z,75.18
2023-02-20T02:45:55.204Z,75.19
2023-02-20T02:48:39.933Z,74.83
2023-02-20T02:51:16.094Z,75.47
2023-02-20T02:53:42.623Z,75.40
2023-02-20T02:56:22.990Z,75.62
2023-02-20T02:58:54.483Z,75.37
2023-02-20T03:01:21.902Z,75.49
2023-02-20T03:03:51.830Z,75.55
2023-02-20T03:06:25.345Z,75.83
2023-02-20T03:09:07.283Z,75.84
2023-02-20T03:11:34.550Z,76.03
2023-02-20T03:14:22.803Z,75.96
2023-02-20T03:17:05.972Z,76.48
2023-02-20T03:19:40.632Z,76.90
2023-02-20T03:22:18.893Z,77.59
2023-02-20T03:24:58.085Z,76.98
2023-02-20T03:27:44.570Z,77.04
2023-02-20T03:30:14.741Z,77.05
2023-02-20T03:33:02.463Z,77.04
2023-02-20T03:35:52.858Z,76.82
2023-02-20T03:38:41.106Z,76.95
2023-02-20T03:41:27.423Z,77.02
2023-02-20T03:43:56.224Z,77.57
2023-02-20T03:46:24.544Z,78.12
2023-02-20T03:49:04.141Z,78.41
2023-02-20T03:51:49.453Z,78.70
2023-02-20T03:54:30.121Z,78.33
2023-02-20T03:57:03.270Z,77.92
2023-02-20T03:59:35.917Z,78.18
2023-02-20T04:02:08.293Z,78.02
2023-02-20T04:04:39.758Z,78.63
2023-02-20T04:07:12.092Z,78.54
2023-02-20T04:09:43.699Z,78.95
2023-02-20T04:12:19.051Z,78.30
2023-02-20T04:14:47.574Z,78.34
2023-02-20T04:17:20.005Z,77.82
2023-02-20T04:19:46.924Z,77.93
2023-02-20T04:22:20.780Z,78.58
2023-02-20T04:25:00.387Z,79.08
2023-02-20T04:27:29.998Z,78.20
2023-02-20T04:29:59.244Z,78.32
2023-02-20T04:32:26.022Z,78.68
2023-02-20T04:34:53.361Z,78.61
2023-02-20T04:37:20.715Z,79.02
2023-02-20T04:39:50.869Z,78.48
2023-02-20T04:42:18.112Z,78.73
2023-02-20T04:44:45.022Z,78.82
2023-02-20T04:47:18.063Z,79.52
2023-02-20T04:49:46.905Z,79.40
2023-02-20T04:52:18.757Z,79.12
2023-02-20T04:54:45.965Z,79.09
2023-02-20T04:57:14.589Z,79.61
2023-02-20T04:59:41.238Z,79.36
2023-02-20T05:02:10.333Z,79.50
2023-02-20T05:04:37.298Z,79.45
2023-02-20T05:07:04.142Z,79.68
2023-02-20T05:09:31.595Z,79.46
2023-02-20T05:11:58.266Z,79.41
2023-02-20T05:14:24.757Z,79.85
2023-02-20T05:16:51.320Z,79.78
2023-02-20T05:19:18.449Z,80.15
2023-02-20T05:22:04.363Z,79.79
2023-02-20T05:24:32.095Z,79.83
2023-02-20T05:26:59.392Z,79.81
2023-02-20T05:29:25.977Z,79.81
2023-02-20T05:31:52.734Z,79.79
2023-02-20T05:34:21.288Z,80.10
2023-02-20T05:36:48.035Z,80.37
2023-02-20T05:39:15.835Z,79.59
2023-02-20T05:41:42.340Z,79.68
2023-02-20T05:44:10.194Z,79.76
2023-02-20T05:46:41.293Z,79.87
2023-02-20T05:49:09.182Z,80.11
2023-02-20T05:51:35.888Z,80.67
2023-02-20T05:54:04.176Z,80.23
2023-02-20T05:56:32.792Z,80.10
2023-02-20T05:59:00.391Z,79.93
2023-02-20T06:01:31.257Z,79.83
2023-02-20T06:03:58.775Z,80.04
2023-02-20T06:06:34.063Z,79.88
2023-02-20T06:09:00.919Z,80.15
2023-02-20T06:11:27.688Z,80.09
2023-02-20T06:13:54.410Z,79.93
2023-02-20T06:16:28.776Z,79.90
2023-02-20T06:18:56.202Z,79.79
2023-02-20T06:21:24.492Z,79.52
2023-02-20T06:23:53.472Z,80.31
2023-02-20T06:26:21.844Z,80.06
2023-02-20T06:28:50.644Z,80.16
2023-02-20T06:31:25.526Z,80.45
2023-02-20T06:33:53.041Z,80.80
2023-02-20T06:36:25.830Z,80.57
2023-02-20T06:38:53.155Z,80.80
2023-02-20T06:41:19.646Z,80.42
2023-02-20T06:43:48.460Z,80.60
2023-02-20T06:46:15.105Z,80.69
2023-02-20T06:48:46.466Z,80.30
2023-02-20T06:51:15.870Z,80.51
2023-02-20T06:53:42.556Z,80.10
2023-02-20T06:56:13.681Z,80.43
2023-02-20T06:58:40.432Z,80.23
2023-02-20T07:01:08.344Z,79.66
2023-02-20T07:03:34.938Z,79.88
2023-02-20T07:06:04.106Z,80.00
2023-02-20T07:08:30.597Z,80.29
2023-02-20T07:10:57.135Z,79.95
2023-02-20T07:13:25.701Z,80.39
2023-02-20T07:15:54.549Z,80.18
2023-02-20T07:18:23.803Z,79.99
2023-02-20T07:20:59.598Z,80.15
2023-02-20T07:23:26.286Z,79.84
2023-02-20T07:25:53.143Z,78.95
2023-02-20T07:28:20.123Z,79.53
2023-02-20T07:30:49.101Z,79.70
2023-02-20T07:33:17.302Z,79.28
2023-02-20T07:35:44.337Z,78.84
2023-02-20T07:38:11.194Z,78.93
2023-02-20T07:40:39.918Z,79.28
2023-02-20T07:43:06.905Z,79.51
2023-02-20T07:45:39.299Z,79.19
2023-02-20T07:48:06.129Z,78.34
2023-02-20T07:50:32.678Z,78.60
2023-02-20T07:52:59.415Z,78.34
2023-02-20T07:55:25.946Z,77.98
2023-02-20T07:57:54.386Z,77.88
2023-02-20T08:00:21.687Z,77.73
2023-02-20T08:02:48.281Z,77.39
2023-02-20T08:05:15.016Z,77.39
2023-02-20T08:07:46.565Z,77.67
2023-02-20T08:10:14.185Z,77.02
2023-02-20T08:12:40.812Z,77.28
2023-02-20T08:15:07.744Z,76.47
2023-02-20T08:17:45.645Z,76.43
2023-02-20T08:20:13.713Z,76.09
2023-02-20T08:22:42.286Z,75.58
2023-02-20T08:25:09.382Z,75.78
2023-02-20T08:27:39.526Z,74.92
2023-02-20T08:30:06.853Z,74.53
2023-02-20T08:32:33.647Z,73.65
2023-02-20T08:35:00.248Z,73.13
2023-02-20T08:37:26.772Z,72.53
2023-02-20T08:39:53.351Z,73.18
2023-02-20T08:42:21.397Z,73.10
2023-02-20T08:44:47.970Z,72.92
2023-02-20T08:47:14.552Z,72.33
2023-02-20T08:49:41.178Z,72.22
2023-02-20T08:52:08.516Z,71.69
2023-02-20T08:54:35.175Z,71.32
2023-02-20T08:57:01.804Z,71.20
2023-02-20T08:59:31.539Z,69.56
2023-02-20T09:01:58.258Z,69.71
2023-02-20T09:04:24.849Z,69.07
2023-02-20T09:06:51.445Z,68.42
2023-02-20T09:09:17.992Z,67.85
2023-02-20T09:11:48.166Z,67.11
2023-02-20T09:14:14.988Z,63.19
2023-02-20T09:16:42.221Z,64.44
2023-02-20T09:19:13.835Z,62.34
2023-02-20T09:21:40.305Z,62.97
2023-02-20T09:24:06.851Z,61.89
2023-02-20T09:26:33.356Z,62.52
2023-02-20T09:29:00.132Z,61.62
2023-02-20T09:31:26.774Z,61.00
2023-02-20T09:33:53.491Z,57.69
2023-02-20T09:36:20.057Z,59.59
2023-02-20T09:38:48.993Z,58.48
2023-02-20T09:41:39.231Z,58.33
2023-02-20T09:44:18.469Z,57.75
2023-02-20T09:46:47.463Z,56.38
2023-02-20T09:49:25.109Z,56.46
2023-02-20T09:52:03.211Z,54.87
2023-02-20T09:54:54.420Z,53.79
2023-02-20T09:57:27.155Z,56.34
2023-02-20T10:00:00.333Z,55.48
2023-02-20T10:02:33.101Z,56.11
2023-02-20T10:05:04.764Z,55.80
2023-02-20T10:07:36.462Z,54.03
2023-02-20T10:10:20.000Z,53.96
2023-02-20T10:13:31.441Z,55.53
2023-02-20T10:15:59.565Z,55.26
2023-02-20T10:18:45.914Z,53.12
2023-02-20T10:21:24.436Z,54.68
2023-02-20T10:24:05.235Z,53.11
2023-02-20T10:26:37.524Z,51.24
2023-02-20T10:29:23.287Z,51.11
2023-02-20T10:31:55.696Z,50.91
2023-02-20T10:34:29.578Z,49.45
2023-02-20T10:37:03.645Z,50.43
2023-02-20T10:39:35.363Z,50.47
2023-02-20T10:42:14.052Z,49.76
2023-02-20T10:44:58.578Z,48.82
2023-02-20T10:47:43.061Z,49.78
2023-02-20T10:50:14.899Z,49.50
2023-02-20T10:52:48.952Z,49.45
2023-02-20T10:55:25.544Z,48.03
2023-02-20T10:58:19.900Z,48.54
2023-02-20T11:00:56.662Z,47.61
2023-02-20T11:23:34.915Z,44.97
2023-02-20T11:30:21.790Z,45.05
2023-02-20T11:32:49.651Z,43.71
2023-02-20T11:35:17.605Z,43.10
2023-02-20T11:37:54.543Z,43.43
2023-02-20T11:40:26.917Z,43.02
2023-02-20T11:42:54.478Z,43.80
2023-02-20T11:45:21.360Z,43.67
2023-02-20T11:48:06.292Z,43.81
2023-02-20T11:50:51.187Z,43.27
2023-02-20T11:53:20.265Z,41.36
2023-02-20T11:55:58.680Z,40.95
2023-02-20T11:58:28.649Z,41.21
2023-02-20T12:00:56.572Z,39.35
2023-02-20T12:03:34.916Z,39.13
2023-02-20T12:06:33.469Z,39.26
2023-02-20T12:09:03.960Z,39.37
2023-02-20T12:11:30.978Z,39.22
2023-02-20T12:13:59.857Z,40.03
2023-02-20T12:16:36.144Z,37.17
2023-02-20T12:19:32.502Z,37.80
2023-02-20T12:22:21.241Z,36.27
2023-02-20T12:25:09.408Z,37.54
2023-02-20T12:27:51.069Z,36.30
2023-02-20T12:30:44.621Z,36.39
2023-02-20T12:33:44.553Z,33.76
2023-02-20T12:36:51.210Z,35.85
2023-02-20T12:39:35.987Z,35.17
2023-02-20T12:42:18.631Z,33.65
2023-02-20T12:45:16.443Z,33.80
2023-02-20T12:47:45.748Z,34.39
2023-02-20T12:50:37.358Z,33.15
2023-02-20T12:53:55.254Z,32.97
2023-02-20T12:56:46.008Z,33.40
2023-02-20T12:59:40.151Z,33.36
2023-02-20T13:02:17.408Z,33.48
2023-02-20T13:04:57.361Z,33.76
2023-02-20T13:07:41.710Z,33.26
2023-02-20T13:10:17.269Z,33.63
2023-02-20T13:12:44.721Z,32.61
2023-02-20T13:15:22.428Z,31.60
2023-02-20T13:18:16.156Z,32.12
2023-02-20T13:20:52.637Z,31.35
2023-02-20T13:23:19.505Z,33.54
2023-02-20T13:25:50.596Z,31.45
2023-02-20T13:28:44.427Z,30.85
2023-02-20T13:31:11.512Z,30.80
2023-02-20T13:33:39.739Z,31.89
2023-02-20T13:36:15.183Z,30.12
2023-02-20T13:38:41.995Z,31.07
2023-02-20T13:41:09.700Z,31.66
2023-02-20T13:43:37.844Z,32.30
2023-02-20T13:46:07.449Z,32.64
2023-02-20T13:48:34.328Z,31.82
2023-02-20T13:51:25.432Z,32.39
2023-02-20T13:54:11.132Z,32.51
2023-02-20T13:56:49.664Z,32.97
2023-02-20T13:59:21.327Z,35.30
2023-02-20T14:02:15.901Z,34.09
2023-02-20T14:05:02.673Z,34.59
2023-02-20T14:07:34.371Z,34.02
2023-02-20T14:10:04.337Z,35.50
2023-02-20T14:12:31.493Z,35.35
2023-02-20T14:15:02.679Z,34.57
2023-02-20T14:17:29.611Z,35.26
2023-02-20T14:20:12.984Z,36.09
2023-02-20T14:22:41.167Z,36.84
2023-02-20T14:25:29.948Z,36.23
2023-02-20T14:28:14.296Z,36.04
2023-02-20T14:30:41.790Z,36.42
2023-02-20T14:33:40.793Z,37.40
2023-02-20T14:36:19.874Z,37.28
2023-02-20T14:39:00.042Z,36.32
2023-02-20T14:41:28.218Z,37.93
2023-02-20T14:44:04.445Z,37.79
2023-02-20T14:46:34.656Z,36.25
2023-02-20T14:49:14.676Z,37.23
2023-02-20T14:51:43.589Z,37.66
2023-02-20T14:54:13.313Z,36.56
2023-02-20T14:56:40.477Z,38.46
2023-02-20T14:59:27.359Z,39.34
2023-02-20T15:02:00.328Z,39.61
2023-02-20T15:04:27.779Z,41.77
2023-02-20T15:07:02.795Z,41.46
2023-02-20T15:09:42.430Z,41.15
2023-02-20T15:12:39.629Z,42.18
2023-02-20T15:15:06.628Z,40.96
2023-02-20T15:17:39.170Z,42.92
2023-02-20T15:20:49.602Z,43.23
2023-02-20T15:23:16.450Z,43.85
2023-02-20T15:25:44.296Z,44.24
2023-02-20T15:28:25.639Z,43.96
2023-02-20T15:31:10.783Z,44.76
2023-02-20T15:33:43.389Z,45.69
2023-02-20T15:36:14.133Z,43.11
2023-02-20T15:38:41.593Z,45.59
2023-02-20T15:41:12.062Z,46.59
2023-02-20T15:43:49.695Z,46.59
2023-02-20T15:46:19.661Z,47.05
2023-02-20T15:48:46.747Z,47.43
2023-02-20T15:51:20.362Z,48.46
2023-02-20T15:53:48.070Z,48.25
2023-02-20T15:56:17.351Z,49.23
2023-02-20T15:58:45.428Z,48.40
2023-02-20T16:01:12.539Z,48.44
2023-02-20T16:03:50.958Z,49.13
2023-02-20T16:06:20.225Z,49.10
2023-02-20T16:08:47.597Z,49.46
2023-02-20T16:11:14.849Z,50.16
2023-02-20T16:13:45.304Z,50.00
2023-02-20T16:16:31.204Z,50.33
2023-02-20T16:18:58.376Z,50.09
2023-02-20T16:21:25.646Z,51.14
2023-02-20T16:23:53.012Z,51.25
2023-02-20T16:26:23.007Z,51.56
2023-02-20T16:28:58.944Z,52.54
2023-02-20T16:31:54.132Z,52.63
2023-02-20T16:34:25.830Z,52.02
2023-02-20T16:36:53.267Z,52.33
2023-02-20T16:39:26.720Z,53.21
2023-02-20T16:41:58.590Z,53.42
2023-02-20T16:44:43.091Z,53.22
2023-02-20T16:47:12.890Z,53.12
2023-02-20T16:49:40.458Z,53.03
2023-02-20T16:52:17.882Z,53.64
2023-02-20T16:54:47.727Z,54.17
2023-02-20T16:57:14.558Z,54.11
2023-02-20T16:59:41.835Z,54.83
2023-02-20T17:02:15.717Z,54.71
2023-02-20T17:04:42.767Z,54.74
2023-02-20T17:09:51.542Z,54.91
2023-02-20T17:12:21.631Z,55.67
2023-02-20T17:14:50.340Z,56.28
2023-02-20T17:17:17.351Z,56.12
2023-02-20T17:19:44.439Z,56.56
2023-02-20T17:22:13.935Z,56.78
2023-02-20T17:24:43.070Z,56.58
2023-02-20T17:27:11.599Z,56.58
2023-02-20T17:29:39.782Z,56.82
2023-02-20T17:32:06.913Z,57.03
2023-02-20T17:34:34.105Z,57.21
2023-02-20T17:37:04.416Z,57.72
2023-02-20T17:39:31.321Z,58.04
2023-02-20T17:41:58.728Z,58.13
2023-02-20T17:44:28.687Z,58.12
2023-02-20T17:46:58.222Z,59.10
2023-02-20T17:49:31.048Z,58.74
2023-02-20T17:51:59.464Z,59.31
2023-02-20T17:54:28.503Z,59.26
2023-02-20T17:56:55.746Z,59.69
2023-02-20T17:59:23.799Z,59.80
2023-02-20T18:01:51.263Z,60.79
2023-02-20T18:04:21.166Z,60.69
2023-02-20T18:06:48.292Z,60.84
2023-02-20T18:09:18.723Z,60.43
2023-02-20T18:11:46.475Z,61.06
2023-02-20T18:14:13.919Z,61.18
2023-02-20T18:16:40.872Z,60.94
2023-02-20T18:19:10.390Z,61.30
2023-02-20T18:21:40.496Z,61.39
2023-02-20T18:24:08.348Z,61.46
2023-02-20T18:26:35.986Z,61.71
2023-02-20T18:29:03.839Z,62.85
2023-02-20T18:31:30.590Z,61.83
2023-02-20T18:33:59.344Z,61.42
2023-02-20T18:36:26.236Z,61.79
2023-02-20T18:38:53.062Z,62.26
2023-02-20T18:41:22.537Z,62.09
2023-02-20T18:43:49.537Z,62.54
2023-02-20T18:46:33.899Z,62.74
2023-02-20T18:49:02.277Z,63.21
2023-02-20T18:51:38.119Z,62.91
2023-02-20T18:54:06.265Z,62.45
2023-02-20T18:56:33.852Z,62.92
2023-02-20T18:59:02.545Z,63.25
2023-02-20T19:01:29.554Z,63.47
2023-02-20T19:03:56.716Z,64.16
2023-02-20T19:06:34.680Z,63.76
2023-02-20T19:09:01.993Z,64.42
2023-02-20T19:11:29.741Z,64.04
2023-02-20T19:13:56.821Z,64.51
2023-02-20T19:16:23.844Z,63.85
2023-02-20T19:18:51.303Z,64.00
2023-02-20T19:21:19.340Z,65.01
2023-02-20T19:23:46.801Z,65.22
2023-02-20T19:26:14.652Z,64.41
2023-02-20T19:28:42.908Z,64.98
2023-02-20T19:31:11.702Z,65.78
2023-02-20T19:33:38.846Z,65.03
2023-02-20T19:36:06.739Z,65.39
2023-02-20T19:38:35.602Z,65.63
2023-02-20T19:41:02.326Z,65.29
2023-02-20T19:43:30.081Z,65.50
2023-02-20T19:45:56.918Z,66.08
2023-02-20T19:48:24.704Z,65.77
2023-02-20T19:50:52.750Z,65.42
2023-02-20T19:53:20.972Z,65.62
2023-02-20T19:55:48.127Z,65.22
2023-02-20T19:58:15.200Z,66.18
2023-02-20T20:00:42.324Z,66.30
2023-02-20T20:03:09.024Z,65.73
2023-02-20T20:05:37.092Z,66.12
2023-02-20T20:08:06.646Z,65.56
2023-02-20T20:10:33.614Z,66.37
2023-02-20T20:13:00.412Z,65.72
2023-02-20T20:15:28.728Z,65.90
2023-02-20T20:18:02.187Z,66.02
2023-02-20T20:20:30.570Z,65.30
2023-02-20T20:23:05.780Z,66.59
2023-02-20T20:25:32.897Z,65.68
2023-02-20T20:28:02.140Z,65.50
2023-02-20T20:30:31.465Z,65.78
2023-02-20T20:32:58.663Z,66.03
2023-02-20T20:35:27.386Z,65.79
2023-02-20T20:37:55.045Z,65.90
2023-02-20T20:40:23.246Z,65.99
2023-02-20T20:42:50.013Z,66.09
2023-02-20T20:45:22.492Z,66.06
2023-02-20T20:47:49.389Z,66.11
2023-02-20T20:50:27.646Z,66.15
2023-02-20T20:52:54.711Z,65.74
2023-02-20T20:55:21.780Z,65.91
2023-02-20T20:57:51.513Z,65.77
2023-02-20T21:00:21.746Z,66.05
2023-02-20T21:02:48.980Z,65.63
2023-02-20T21:05:17.558Z,66.85
2023-02-20T21:07:44.418Z,66.08
2023-02-20T21:10:11.566Z,66.23
2023-02-20T21:12:39.341Z,66.19
2023-02-20T21:15:07.878Z,66.22
2023-02-20T21:17:35.932Z,66.60
2023-02-20T21:20:07.209Z,66.55
2023-02-20T21:22:34.896Z,66.13
2023-02-20T21:25:02.170Z,66.32
2023-02-20T21:27:28.891Z,66.24
2023-02-20T21:29:55.637Z,67.23
2023-02-20T21:32:23.810Z,66.66
2023-02-20T21:34:50.560Z,66.46
2023-02-20T21:37:18.316Z,66.66
2023-02-20T21:39:45.249Z,66.04
2023-02-20T21:42:31.695Z,66.57
2023-02-20T21:44:58.396Z,66.47
2023-02-20T21:47:25.436Z,66.64
2023-02-20T21:49:52.344Z,66.98
2023-02-20T21:52:19.848Z,66.60
2023-02-20T21:54:49.296Z,66.72
2023-02-20T21:57:16.894Z,66.74
2023-02-20T21:59:44.039Z,66.78
2023-02-20T22:02:18.995Z,66.87
2023-02-20T22:04:47.268Z,66.99
2023-02-20T22:07:33.580Z,66.44
2023-02-20T22:10:18.950Z,66.62
2023-02-20T22:13:04.362Z,65.64
2023-02-20T22:15:49.760Z,65.40
2023-02-20T22:18:35.869Z,64.49
2023-02-20T22:21:21.115Z,62.42
2023-02-20T22:24:06.432Z,61.06
2023-02-20T22:26:51.686Z,59.93
2023-02-20T22:29:37.232Z,58.69
2023-02-20T22:32:23.211Z,58.58
2023-02-20T22:35:12.303Z,58.85
2023-02-20T22:37:57.635Z,59.78
2023-02-20T22:40:43.086Z,60.75
2023-02-20T22:43:29.005Z,61.90
2023-02-20T22:46:14.499Z,61.90
2023-02-20T22:48:59.770Z,61.74
2023-02-20T22:51:45.196Z,62.38
2023-02-20T22:54:30.523Z,62.32
2023-02-20T22:57:16.165Z,62.59
2023-02-20T23:00:02.312Z,62.48
2023-02-20T23:02:48.638Z,62.78
2023-02-20T23:05:34.036Z,63.14
2023-02-20T23:08:19.754Z,64.04
2023-02-20T23:11:05.681Z,64.27
2023-02-20T23:13:50.851Z,64.76
2023-02-20T23:16:40.612Z,64.96
2023-02-20T23:19:28.612Z,64.66
2023-02-20T23:22:14.948Z,64.58
2023-02-20T23:25:00.346Z,64.71
2023-02-20T23:27:46.141Z,65.62
2023-02-20T23:30:32.135Z,65.96
2023-02-20T23:33:17.350Z,65.65
2023-02-20T23:36:03.244Z,65.54
2023-02-20T23:38:48.509Z,65.78
2023-02-20T23:41:33.991Z,65.78
2023-02-20T23:44:19.646Z,66.29
2023-02-20T23:47:05.811Z,66.19
2023-02-20T23:49:51.063Z,65.88
2023-02-20T23:52:36.496Z,66.25
2023-02-20T23:55:21.781Z,66.49
2023-02-20T23:58:07.277Z,65.97
